X  Sluiten METAR luchtvaart weer gegevens      YMML Melbourne International Airport
Temperatuur
64°F Temperatuur
50°F Dauwpunt
60% Vochtigheid



Wind
22 MPH
35 KM/U
10 M/S
19 KTS



30°
NNO
Huidig weer

Helder Helder
Luchtdruk 1012.87 (hPa) - 29.91 (inHg)
Zicht 6 (mijl) - 9.7 (km)
Vliegveld
Vliegveld code YMML

Locatie : Melbourne International Airport
Afstand: 18 (mi)

Metar:
YMML 300201Z 03019G29KT CAVOK 18/10 Q1013

Tijd: 30-05-2024 12:01 AEST